Latest Weather Observations for Port Hedland

IDW60801

Issued at 2:02 pm WST Sunday 26 April 2015 (issued every 30 minutes, with the page automatically refreshed every 10 minutes)

About weather observations | Map of weather stations | Latest weather observations for WA | Other Formats
Station Details ID: 004032 Name: PORT HEDLAND AIRPORT Lat: -20.37 Lon: 118.63 Height: 6.4 m
Data from the previous 72 hours. | See also: Recent months at Port Hedland
Date/Time
WST
Temp
°C
App
Temp
°C
Dew
Point
Rel
Hum
%
Delta-T
°C
Wind Press
QNH
hPa
Press
MSL
hPa
Rain
since 9 am
mm
Dir
 
Spd
km/h
Gust
km/h
Spd
kts
Gust
kts
26/02:00pm 30.5 22.9 0.5 14 14.5 E 30 37 16 20 1013.9 - 0.0
26/01:30pm 30.1 22.5 0.3 14 14.3 E 30 41 16 22 1014.2 - 0.0
26/01:00pm 31.1 23.1 0.3 14 14.9 E 32 41 17 22 1014.3 - 0.0
26/12:30pm 30.4 22.4 0.6 14 14.4 E 32 43 17 23 1014.7 - 0.0
26/12:00pm 29.2 21.5 0.2 15 13.8 ESE 30 39 16 21 1015.3 1015.2 0.0
26/11:30am 28.0 19.7 -0.1 16 13.2 E 33 43 18 23 1015.6 - 0.0
26/11:00am 27.2 19.7 0.9 18 12.5 ESE 30 44 16 24 1016.3 - 0.0
26/10:30am 27.0 18.4 0.0 17 12.6 ESE 35 48 19 26 1016.6 - 0.0
26/10:00am 27.1 18.5 0.2 17 12.6 ESE 35 52 19 28 1016.7 - 0.0
26/09:30am 25.6 17.0 0.1 18 11.8 ESE 35 46 19 25 1016.8 - 0.0
26/09:00am 25.1 16.1 0.2 19 11.5 E 37 52 20 28 1016.4 1016.3 0.0
26/08:30am 24.7 16.7 0.5 20 11.2 ESE 32 48 17 26 1016.4 - 0.0
26/08:00am 24.3 15.8 0.8 21 10.9 ESE 35 52 19 28 1016.1 - 0.0
26/07:30am 24.1 16.0 1.2 22 10.7 ESE 33 46 18 25 1015.7 - 0.0
26/07:06am 24.1 16.3 1.5 22 10.6 ESE 32 50 17 27 1015.5 - 0.0
26/07:00am 24.1 16.1 1.5 22 10.6 ESE 33 50 18 27 1015.4 - 0.0
26/06:30am 24.4 16.4 1.4 22 10.8 ESE 33 48 18 26 1015.2 - 0.0
26/06:00am 24.6 16.8 1.8 22 10.8 ESE 32 44 17 24 1015.0 1014.9 0.0
26/05:30am 24.9 17.2 2.1 22 10.9 ESE 32 44 17 24 1014.7 - 0.0
26/05:00am 25.2 17.5 2.3 22 11.0 ESE 32 50 17 27 1014.5 - 0.0
26/04:47am 25.3 17.6 2.5 22 11.0 ESE 32 50 17 27 1014.4 - 0.0
26/04:30am 25.3 17.8 3.2 24 10.8 ESE 32 46 17 25 1014.4 - 0.0
26/04:00am 25.4 18.7 3.8 24 10.7 ESE 28 39 15 21 1014.2 - 0.0
26/03:30am 25.4 18.8 4.4 25 10.5 ESE 28 41 15 22 1014.1 - 0.0
26/03:00am 25.5 19.0 4.9 26 10.4 ESE 28 39 15 21 1014.0 1013.9 0.0
26/02:30am 25.6 19.6 5.4 27 10.3 ESE 26 39 14 21 1014.2 - 0.0
26/02:00am 25.6 20.4 5.7 28 10.2 SE 22 28 12 15 1014.3 - 0.0
26/01:30am 25.5 20.8 6.1 29 10.0 SE 20 26 11 14 1014.3 - 0.0
26/01:00am 25.5 20.9 6.4 29 9.9 SE 20 28 11 15 1014.6 - 0.0
26/12:30am 25.5 20.6 7.0 30 9.7 SE 22 30 12 16 1014.7 - 0.0
26/12:00am 25.5 21.8 7.8 32 9.4 SE 17 24 9 13 1014.9 1014.8 0.0
 
Date/Time
WST
Temp
°C
App
Temp
°C
Dew
Point
Rel
Hum
%
Delta-T
°C
Wind Press
QNH
hPa
Press
MSL
hPa
Rain
since 9 am
mm
Dir
 
Spd
km/h
Gust
km/h
Spd
kts
Gust
kts
25/11:30pm 25.8 22.1 7.8 32 9.6 ESE 17 20 9 11 1015.2 - 0.0
25/11:00pm 25.7 22.1 8.4 33 9.3 SE 17 20 9 11 1015.1 - 0.0
25/10:30pm 25.7 22.6 8.7 34 9.2 SE 15 20 8 11 1015.3 - 0.0
25/10:00pm 25.9 21.9 8.2 32 9.5 ESE 19 24 10 13 1015.3 - 0.0
25/09:30pm 26.1 21.8 8.0 31 9.7 ESE 20 28 11 15 1015.6 - 0.0
25/09:00pm 25.9 21.9 8.2 32 9.5 ESE 19 24 10 13 1015.5 1015.4 0.0
25/08:30pm 25.7 22.1 8.4 33 9.3 ESE 17 22 9 12 1015.4 - 0.0
25/08:00pm 26.0 22.4 8.4 32 9.5 ESE 17 22 9 12 1015.3 - 0.0
25/07:30pm 26.1 22.5 8.5 32 9.5 ESE 17 22 9 12 1015.1 - 0.0
25/07:00pm 26.3 22.6 8.0 31 9.8 ESE 17 20 9 11 1014.8 - 0.0
25/06:30pm 26.5 22.3 7.5 30 10.1 ESE 19 26 10 14 1014.4 - 0.0
25/06:00pm 26.6 21.4 7.1 29 10.3 ESE 24 35 13 19 1014.2 1014.1 0.0
25/05:30pm 26.8 22.0 7.5 29 10.3 ESE 22 30 12 16 1013.9 - 0.0
25/05:00pm 27.1 21.2 7.7 29 10.4 ESE 28 37 15 20 1013.7 - 0.0
25/04:30pm 27.8 21.0 6.9 26 11.1 ESE 32 43 17 23 1013.2 - 0.0
25/04:00pm 28.0 21.5 6.6 25 11.3 ESE 30 41 16 22 1013.0 - 0.0
25/03:30pm 27.5 20.6 6.3 26 11.1 ESE 32 43 17 23 1013.0 - 0.0
25/03:00pm 28.1 22.0 6.5 25 11.4 ESE 28 43 15 23 1013.0 1012.9 0.0
25/02:30pm 28.6 21.8 6.8 25 11.6 ESE 32 41 17 22 1012.9 - 0.0
25/02:00pm 28.4 21.4 6.7 25 11.5 ESE 33 43 18 23 1013.1 - 0.0
25/01:30pm 28.6 21.7 6.5 24 11.7 ESE 32 41 17 22 1013.2 - 0.0
25/01:00pm 28.1 21.7 7.1 26 11.2 ESE 30 37 16 20 1013.6 - 0.0
25/12:30pm 28.0 21.1 6.3 25 11.4 ESE 32 44 17 24 1013.7 - 0.0
25/12:00pm 28.8 21.3 6.5 24 11.8 ESE 35 48 19 26 1014.0 1013.9 0.0
25/11:30am 28.3 20.9 6.9 26 11.4 ESE 35 50 19 27 1014.3 - 0.0
25/11:00am 27.3 19.9 6.9 27 10.8 ESE 35 48 19 26 1014.6 - 0.0
25/10:30am 26.8 19.4 6.9 28 10.5 ESE 35 46 19 25 1015.1 - 0.0
25/10:00am 26.0 18.6 6.7 29 10.1 ESE 35 48 19 26 1015.3 - 0.0
25/09:49am 25.6 18.2 6.9 30 9.8 ESE 35 54 19 29 1015.4 - 0.0
25/09:30am 25.1 16.5 6.3 30 9.7 ESE 41 54 22 29 1015.3 - 0.0
25/09:09am 24.8 16.6 6.4 30 9.5 ESE 39 57 21 31 1015.3 - 0.0
25/09:00am 25.2 16.0 6.2 29 9.8 ESE 44 59 24 32 1015.1 1015.0 0.0
25/08:30am 24.4 15.7 6.0 30 9.4 ESE 41 54 22 29 1015.2 - 0.0
25/08:00am 24.4 17.3 6.6 32 9.2 ESE 33 52 18 28 1015.0 - 0.0
25/07:35am 23.9 16.7 6.1 31 9.1 ESE 33 52 18 28 1014.9 - 0.0
25/07:30am 24.0 17.0 6.2 31 9.1 ESE 32 48 17 26 1014.9 - 0.0
25/07:00am 23.6 16.7 6.5 33 8.8 ESE 32 44 17 24 1014.4 - 0.0
25/06:30am 23.7 16.8 6.3 32 8.9 ESE 32 50 17 27 1013.8 - 0.0
25/06:21am 23.8 16.8 6.2 32 9.0 ESE 32 50 17 27 1013.8 - 0.0
25/06:00am 23.9 17.4 6.7 33 8.9 ESE 30 43 16 23 1013.4 1013.3 0.0
25/05:30am 24.2 18.1 6.6 32 9.1 ESE 28 37 15 20 1013.2 - 0.0
25/05:00am 24.3 18.7 7.0 33 9.0 ESE 26 39 14 21 1013.0 - 0.0
25/04:30am 24.5 18.8 8.2 35 8.7 ESE 28 41 15 22 1012.9 - 0.0
25/04:00am 24.4 20.2 11.0 43 7.5 ESE 24 33 13 18 1012.8 - 0.0
25/03:30am 23.9 22.1 13.2 51 6.2 ESE 15 20 8 11 1013.0 - 0.0
25/03:00am 24.1 22.1 12.8 49 6.5 ESE 15 20 8 11 1013.1 1013.0 0.0
25/02:30am 24.6 21.5 12.2 46 7.1 ESE 20 28 11 15 1013.2 - 0.0
25/02:00am 24.7 20.8 12.1 45 7.2 ESE 24 32 13 17 1013.2 - 0.0
25/01:30am 24.8 21.6 11.8 44 7.4 E 20 26 11 14 1013.1 - 0.0
25/01:00am 25.0 21.8 11.8 43 7.5 E 20 26 11 14 1013.3 - 0.0
25/12:30am 25.1 22.3 11.5 42 7.7 E 17 24 9 13 1013.6 - 0.0
25/12:00am 25.2 22.4 11.4 42 7.8 ESE 17 22 9 12 1013.4 1013.3 0.0
 
Date/Time
WST
Temp
°C
App
Temp
°C
Dew
Point
Rel
Hum
%
Delta-T
°C
Wind Press
QNH
hPa
Press
MSL
hPa
Rain
since 9 am
mm
Dir
 
Spd
km/h
Gust
km/h
Spd
kts
Gust
kts
24/11:30pm 25.3 22.5 11.3 41 7.9 ESE 17 24 9 13 1013.5 - 0.0
24/11:00pm 25.4 22.2 11.2 41 8.0 ESE 19 24 10 13 1013.5 - 0.0
24/10:30pm 24.9 22.2 11.7 43 7.5 ESE 17 20 9 11 1013.6 - 0.0
24/10:00pm 23.7 22.0 12.3 48 6.5 ESE 13 17 7 9 1013.6 - 0.0
24/09:30pm 23.9 22.2 12.3 48 6.6 SE 13 17 7 9 1013.7 - 0.0
24/09:00pm 24.3 22.6 12.6 48 6.7 SE 13 17 7 9 1013.8 1013.7 0.0
24/08:30pm 24.6 22.9 12.6 47 6.9 SE 13 19 7 10 1013.8 - 0.0
24/08:00pm 25.0 22.9 12.5 45 7.2 SE 15 17 8 9 1013.5 - 0.0
24/07:30pm 25.2 23.0 12.1 44 7.5 SE 15 20 8 11 1013.3 - 0.0
24/07:00pm 25.5 22.8 11.8 42 7.8 SE 17 22 9 12 1013.2 - 0.0
24/06:30pm 26.2 22.8 11.4 39 8.4 ESE 20 30 11 16 1012.9 - 0.0
24/06:00pm 26.6 22.9 11.5 39 8.6 ESE 22 32 12 17 1012.7 1012.6 0.0
24/05:30pm 27.1 22.1 11.1 36 9.1 ESE 28 35 15 19 1012.4 - 0.0
24/05:00pm 27.8 23.2 11.1 35 9.5 SE 26 39 14 21 1012.2 - 0.0
24/04:30pm 27.9 22.6 11.3 35 9.5 SE 30 41 16 22 1012.1 - 0.0
24/04:00pm 28.1 22.4 11.1 34 9.7 ESE 32 43 17 23 1012.0 - 0.0
24/03:30pm 29.0 23.4 11.5 33 10.1 ESE 32 44 17 24 1011.7 - 0.0
24/03:00pm 28.8 23.6 11.7 34 9.9 ESE 30 46 16 25 1011.6 1011.5 0.0
24/02:30pm 28.5 22.8 11.2 34 9.9 ESE 32 43 17 23 1011.7 - 0.0
24/02:00pm 28.8 23.2 11.4 34 10.0 ESE 32 44 17 24 1011.7 - 0.0
24/01:30pm 28.7 23.0 11.3 34 10.0 ESE 32 46 17 25 1011.8 - 0.0
24/01:00pm 28.4 22.5 11.1 34 9.9 ESE 33 46 18 25 1012.1 - 0.0
24/12:30pm 28.2 22.6 11.5 35 9.6 ESE 32 43 17 23 1012.4 - 0.0
24/12:00pm 27.4 21.2 11.5 37 9.1 ESE 35 46 19 25 1012.8 1012.7 0.0
24/11:30am 27.2 22.4 11.7 38 8.9 ESE 28 39 15 21 1013.2 - 0.0
24/11:00am 26.1 19.9 11.3 39 8.4 ESE 35 48 19 26 1013.6 - 0.0
24/10:30am 25.8 19.5 11.1 39 8.3 ESE 35 48 19 26 1014.0 - 0.0
24/10:00am 25.3 18.9 10.6 39 8.2 ESE 35 52 19 28 1014.2 - 0.0
24/09:30am 24.5 19.2 11.1 43 7.5 ESE 30 46 16 25 1014.3 - 0.0
24/09:00am 23.6 17.5 11.7 47 6.7 SE 35 48 19 26 1014.1 1014.0 0.0
24/08:30am 22.8 18.8 13.1 54 5.6 ESE 26 39 14 21 1014.3 - 0.0
24/08:00am 21.8 18.3 13.5 59 4.8 SE 24 33 13 18 1014.0 - 0.0
24/07:30am 21.0 17.3 13.9 64 4.1 SE 26 39 14 21 1013.7 - 0.0
24/07:00am 20.4 16.9 14.4 68 3.5 SE 26 39 14 21 1013.5 - 0.0
24/06:30am 20.2 16.5 15.1 72 3.0 SE 28 41 15 22 1013.2 - 0.0
24/06:00am 20.9 17.8 14.4 66 3.8 SE 24 35 13 19 1013.1 1013.0 0.0
24/05:30am 21.0 17.8 14.3 65 3.9 SE 24 33 13 18 1012.9 - 0.0
24/05:00am 20.8 17.3 14.5 67 3.7 ESE 26 37 14 20 1012.9 - 0.0
24/04:30am 21.0 17.9 14.5 66 3.8 SE 24 39 13 21 1012.9 - 0.0
24/04:00am 21.2 16.6 14.7 66 3.8 SE 32 43 17 23 1012.8 - 0.0
24/03:30am 22.0 17.5 13.9 60 4.7 ESE 30 43 16 23 1012.8 - 0.0
24/03:00am 22.8 18.1 13.3 55 5.5 ESE 30 41 16 22 1012.9 1012.8 0.0
24/02:30am 22.7 17.8 13.6 56 5.3 ESE 32 46 17 25 1012.8 - 0.0
24/02:21am 22.8 18.6 13.5 55 5.4 ESE 28 46 15 25 1012.8 - 0.0
24/02:00am 22.6 20.1 14.0 58 5.0 ESE 20 30 11 16 1012.9 - 0.0
24/01:30am 22.6 20.1 14.2 59 4.9 ESE 20 28 11 15 1013.1 - 0.0
24/01:00am 22.6 20.2 14.4 60 4.8 SE 20 30 11 16 1013.1 - 0.0
24/12:30am 22.5 20.3 14.9 62 4.5 ESE 20 28 11 15 1013.3 - 0.0
24/12:00am 22.4 20.4 15.0 63 4.4 ESE 19 24 10 13 1013.3 1013.2 0.0
 
Date/Time
WST
Temp
°C
App
Temp
°C
Dew
Point
Rel
Hum
%
Delta-T
°C
Wind Press
QNH
hPa
Press
MSL
hPa
Rain
since 9 am
mm
Dir
 
Spd
km/h
Gust
km/h
Spd
kts
Gust
kts
23/11:30pm 22.5 20.1 14.5 60 4.7 ESE 20 30 11 16 1013.4 - 0.0
23/11:00pm 22.6 20.4 14.4 60 4.8 E 19 24 10 13 1013.5 - 0.0
23/10:30pm 22.8 19.5 13.9 57 5.2 ESE 24 39 13 21 1013.5 - 0.0
23/10:01pm 23.3 18.3 13.5 54 5.7 ESE 32 50 17 27 1013.5 - 0.0
23/10:00pm 23.3 18.1 13.5 54 5.7 ESE 33 50 18 27 1013.5 - 0.0
23/09:58pm 23.3 18.3 13.5 54 5.7 ESE 32 50 17 27 1013.5 - 0.0
23/09:30pm 23.6 19.3 13.2 52 6.0 ESE 28 39 15 21 1013.4 - 0.0
23/09:00pm 23.6 20.3 14.1 55 5.6 ESE 24 41 13 22 1013.2 1013.1 0.0
23/08:30pm 23.6 22.0 15.1 59 5.1 ESE 17 24 9 13 1013.1 - 0.0
23/08:00pm 23.7 21.5 14.8 57 5.3 ESE 20 28 11 15 1012.9 - 0.0
23/07:30pm 23.6 22.0 15.1 59 5.1 SE 17 24 9 13 1012.4 - 0.0
23/07:00pm 23.6 21.6 14.9 58 5.2 SE 19 26 10 14 1012.3 - 0.0
23/06:30pm 23.6 22.4 15.1 59 5.1 SE 15 20 8 11 1012.1 - 0.0
23/06:00pm 23.9 21.7 14.8 56 5.4 SE 20 30 11 16 1011.8 1011.7 0.0
23/05:30pm 24.5 21.6 15.2 56 5.6 ESE 24 32 13 17 1011.6 - 0.0
23/05:00pm 24.9 21.6 14.9 53 6.0 ESE 26 35 14 19 1011.3 - 0.0
23/04:30pm 25.6 22.0 15.2 52 6.3 ESE 28 43 15 23 1011.0 - 0.0
23/04:00pm 25.9 21.8 14.9 50 6.6 ESE 30 43 16 23 1010.9 - 0.0
23/03:30pm 26.5 22.8 15.1 49 6.9 ESE 28 43 15 23 1010.7 - 0.0
23/03:00pm 25.7 22.0 15.1 52 6.4 ESE 28 39 15 21 1010.8 1010.7 0.0
23/02:30pm 25.3 21.5 14.6 51 6.4 ESE 28 39 15 21 1010.9 - 0.0

Other Formats:

Comma delimited format used in spreadsheet applications
http://www.bom.gov.au/fwo/IDW60801/IDW60801.94312.axf

JavaScript Object Notation format (JSON) in row-major order
http://www.bom.gov.au/fwo/IDW60801/IDW60801.94312.json